sensor_id;sensor_type;location;lat;lon;timestamp;P1;durP1;ratioP1;P2;durP2;ratioP2
17177;SDS011;8704;52.006;4.374;2023-01-16T00:00:19;40.35;;;38.05;;
17177;SDS011;8704;52.006;4.374;2023-01-16T00:02:47;41.35;;;39.08;;
17177;SDS011;8704;52.006;4.374;2023-01-16T00:05:15;39.08;;;36.97;;
17177;SDS011;8704;52.006;4.374;2023-01-16T00:07:44;42.95;;;40.75;;
17177;SDS011;8704;52.006;4.374;2023-01-16T00:12:46;44.90;;;42.55;;
17177;SDS011;8704;52.006;4.374;2023-01-16T00:15:15;47.38;;;44.67;;
17177;SDS011;8704;52.006;4.374;2023-01-16T00:17:43;44.10;;;41.47;;
17177;SDS011;8704;52.006;4.374;2023-01-16T00:20:11;44.95;;;42.65;;
17177;SDS011;8704;52.006;4.374;2023-01-16T00:22:39;42.90;;;40.35;;
17177;SDS011;8704;52.006;4.374;2023-01-16T00:25:07;46.30;;;43.83;;
17177;SDS011;8704;52.006;4.374;2023-01-16T00:27:37;52.08;;;49.10;;
17177;SDS011;8704;52.006;4.374;2023-01-16T00:30:05;45.65;;;43.08;;
17177;SDS011;8704;52.006;4.374;2023-01-16T00:32:34;50.13;;;47.50;;
17177;SDS011;8704;52.006;4.374;2023-01-16T00:35:02;48.75;;;46.05;;
17177;SDS011;8704;52.006;4.374;2023-01-16T00:37:31;47.28;;;44.72;;
17177;SDS011;8704;52.006;4.374;2023-01-16T00:39:59;41.15;;;38.65;;
17177;SDS011;8704;52.006;4.374;2023-01-16T00:42:27;43.75;;;41.40;;
17177;SDS011;8704;52.006;4.374;2023-01-16T00:44:56;44.33;;;42.10;;
17177;SDS011;8704;52.006;4.374;2023-01-16T00:47:24;49.35;;;46.67;;
17177;SDS011;8704;52.006;4.374;2023-01-16T00:49:52;45.80;;;42.97;;
17177;SDS011;8704;52.006;4.374;2023-01-16T00:52:20;41.60;;;38.78;;
17177;SDS011;8704;52.006;4.374;2023-01-16T00:54:49;46.75;;;44.28;;
17177;SDS011;8704;52.006;4.374;2023-01-16T00:57:17;43.92;;;41.25;;
17177;SDS011;8704;52.006;4.374;2023-01-16T00:59:45;44.88;;;41.83;;
17177;SDS011;8704;52.006;4.374;2023-01-16T01:02:14;42.45;;;40.05;;
17177;SDS011;8704;52.006;4.374;2023-01-16T01:04:43;43.08;;;40.63;;
17177;SDS011;8704;52.006;4.374;2023-01-16T01:07:11;39.03;;;36.28;;
17177;SDS011;8704;52.006;4.374;2023-01-16T01:09:39;41.25;;;38.63;;
17177;SDS011;8704;52.006;4.374;2023-01-16T01:12:07;41.83;;;39.25;;
17177;SDS011;8704;52.006;4.374;2023-01-16T01:14:35;43.47;;;40.78;;
17177;SDS011;8704;52.006;4.374;2023-01-16T01:17:03;44.05;;;40.95;;
17177;SDS011;8704;52.006;4.374;2023-01-16T01:19:32;48.05;;;44.78;;
17177;SDS011;8704;52.006;4.374;2023-01-16T01:22:01;41.20;;;38.83;;
17177;SDS011;8704;52.006;4.374;2023-01-16T01:24:29;41.35;;;38.42;;
17177;SDS011;8704;52.006;4.374;2023-01-16T01:26:57;43.58;;;40.53;;
17177;SDS011;8704;52.006;4.374;2023-01-16T01:29:25;49.00;;;45.20;;
17177;SDS011;8704;52.006;4.374;2023-01-16T01:31:53;47.00;;;42.90;;
17177;SDS011;8704;52.006;4.374;2023-01-16T01:34:21;49.38;;;45.72;;
17177;SDS011;8704;52.006;4.374;2023-01-16T01:36:50;50.28;;;47.22;;
17177;SDS011;8704;52.006;4.374;2023-01-16T01:39:18;51.08;;;47.35;;
17177;SDS011;8704;52.006;4.374;2023-01-16T01:41:46;50.72;;;47.47;;
17177;SDS011;8704;52.006;4.374;2023-01-16T01:47:15;50.05;;;46.67;;
17177;SDS011;8704;52.006;4.374;2023-01-16T01:49:47;56.08;;;52.40;;
17177;SDS011;8704;52.006;4.374;2023-01-16T01:52:17;55.80;;;51.80;;
17177;SDS011;8704;52.006;4.374;2023-01-16T01:54:49;62.05;;;58.38;;
17177;SDS011;8704;52.006;4.374;2023-01-16T01:57:20;58.92;;;55.25;;
17177;SDS011;8704;52.006;4.374;2023-01-16T01:59:54;60.22;;;56.20;;
17177;SDS011;8704;52.006;4.374;2023-01-16T02:02:26;61.78;;;57.97;;
17177;SDS011;8704;52.006;4.374;2023-01-16T02:05:05;64.85;;;60.83;;
17177;SDS011;8704;52.006;4.374;2023-01-16T02:07:37;64.13;;;59.83;;
17177;SDS011;8704;52.006;4.374;2023-01-16T02:10:07;61.28;;;57.17;;
17177;SDS011;8704;52.006;4.374;2023-01-16T02:12:41;63.25;;;59.05;;
17177;SDS011;8704;52.006;4.374;2023-01-16T02:15:09;62.78;;;58.85;;
17177;SDS011;8704;52.006;4.374;2023-01-16T02:17:42;58.28;;;54.25;;
17177;SDS011;8704;52.006;4.374;2023-01-16T02:20:29;55.37;;;51.97;;
17177;SDS011;8704;52.006;4.374;2023-01-16T02:23:12;54.58;;;51.25;;
17177;SDS011;8704;52.006;4.374;2023-01-16T02:26:12;48.53;;;45.67;;
17177;SDS011;8704;52.006;4.374;2023-01-16T02:32:30;47.10;;;44.30;;
17177;SDS011;8704;52.006;4.374;2023-01-16T02:35:08;41.53;;;38.85;;
17177;SDS011;8704;52.006;4.374;2023-01-16T02:37:45;40.42;;;38.00;;
17177;SDS011;8704;52.006;4.374;2023-01-16T02:40:23;39.03;;;36.47;;
17177;SDS011;8704;52.006;4.374;2023-01-16T02:43:02;40.55;;;37.80;;
17177;SDS011;8704;52.006;4.374;2023-01-16T02:45:41;43.45;;;41.00;;
17177;SDS011;8704;52.006;4.374;2023-01-16T02:48:19;41.33;;;38.70;;
17177;SDS011;8704;52.006;4.374;2023-01-16T02:50:54;41.88;;;39.17;;
17177;SDS011;8704;52.006;4.374;2023-01-16T02:53:27;43.78;;;40.80;;
17177;SDS011;8704;52.006;4.374;2023-01-16T02:56:02;39.97;;;37.13;;
17177;SDS011;8704;52.006;4.374;2023-01-16T02:58:35;37.67;;;35.28;;
17177;SDS011;8704;52.006;4.374;2023-01-16T03:01:06;36.23;;;34.20;;
17177;SDS011;8704;52.006;4.374;2023-01-16T03:03:41;42.15;;;39.45;;
17177;SDS011;8704;52.006;4.374;2023-01-16T03:09:10;38.25;;;35.85;;
17177;SDS011;8704;52.006;4.374;2023-01-16T03:11:53;35.85;;;33.90;;
17177;SDS011;8704;52.006;4.374;2023-01-16T03:14:33;37.13;;;34.65;;
17177;SDS011;8704;52.006;4.374;2023-01-16T03:17:11;39.65;;;37.28;;
17177;SDS011;8704;52.006;4.374;2023-01-16T03:20:08;35.97;;;34.05;;
17177;SDS011;8704;52.006;4.374;2023-01-16T03:22:43;39.58;;;37.33;;
17177;SDS011;8704;52.006;4.374;2023-01-16T03:25:21;38.50;;;36.13;;
17177;SDS011;8704;52.006;4.374;2023-01-16T03:27:56;39.53;;;37.25;;
17177;SDS011;8704;52.006;4.374;2023-01-16T03:30:35;38.85;;;36.38;;
17177;SDS011;8704;52.006;4.374;2023-01-16T03:33:09;39.53;;;36.85;;
17177;SDS011;8704;52.006;4.374;2023-01-16T03:35:46;35.97;;;33.88;;
17177;SDS011;8704;52.006;4.374;2023-01-16T03:38:19;33.97;;;31.88;;
17177;SDS011;8704;52.006;4.374;2023-01-16T03:40:50;40.28;;;37.95;;
17177;SDS011;8704;52.006;4.374;2023-01-16T03:43:20;40.65;;;37.88;;
17177;SDS011;8704;52.006;4.374;2023-01-16T03:45:52;40.13;;;37.63;;
17177;SDS011;8704;52.006;4.374;2023-01-16T03:48:24;38.25;;;36.05;;
17177;SDS011;8704;52.006;4.374;2023-01-16T03:51:02;40.67;;;38.10;;
17177;SDS011;8704;52.006;4.374;2023-01-16T03:53:40;38.63;;;36.33;;
17177;SDS011;8704;52.006;4.374;2023-01-16T03:56:13;36.88;;;34.63;;
17177;SDS011;8704;52.006;4.374;2023-01-16T03:58:49;39.65;;;37.33;;
17177;SDS011;8704;52.006;4.374;2023-01-16T04:01:21;36.22;;;33.58;;
17177;SDS011;8704;52.006;4.374;2023-01-16T04:03:57;37.80;;;35.50;;
17177;SDS011;8704;52.006;4.374;2023-01-16T04:06:31;33.40;;;31.40;;
17177;SDS011;8704;52.006;4.374;2023-01-16T04:09:03;31.60;;;29.60;;
17177;SDS011;8704;52.006;4.374;2023-01-16T04:11:35;34.42;;;32.30;;
17177;SDS011;8704;52.006;4.374;2023-01-16T04:16:36;33.35;;;31.10;;
17177;SDS011;8704;52.006;4.374;2023-01-16T04:19:05;34.30;;;32.30;;
17177;SDS011;8704;52.006;4.374;2023-01-16T04:21:37;33.75;;;31.42;;
17177;SDS011;8704;52.006;4.374;2023-01-16T04:24:10;30.60;;;28.77;;
17177;SDS011;8704;52.006;4.374;2023-01-16T04:26:38;33.78;;;31.58;;
17177;SDS011;8704;52.006;4.374;2023-01-16T04:29:06;28.30;;;26.50;;
17177;SDS011;8704;52.006;4.374;2023-01-16T04:31:34;29.40;;;27.65;;
17177;SDS011;8704;52.006;4.374;2023-01-16T04:34:02;27.85;;;25.90;;
17177;SDS011;8704;52.006;4.374;2023-01-16T04:36:30;26.60;;;24.38;;
17177;SDS011;8704;52.006;4.374;2023-01-16T04:39:00;27.00;;;25.23;;
17177;SDS011;8704;52.006;4.374;2023-01-16T04:41:28;25.50;;;23.88;;
17177;SDS011;8704;52.006;4.374;2023-01-16T04:44:07;25.55;;;23.63;;
17177;SDS011;8704;52.006;4.374;2023-01-16T04:46:36;24.67;;;22.90;;
17177;SDS011;8704;52.006;4.374;2023-01-16T04:49:04;27.25;;;25.08;;
17177;SDS011;8704;52.006;4.374;2023-01-16T04:51:33;24.83;;;23.08;;
17177;SDS011;8704;52.006;4.374;2023-01-16T04:54:03;25.33;;;23.23;;
17177;SDS011;8704;52.006;4.374;2023-01-16T04:56:32;27.13;;;25.00;;
17177;SDS011;8704;52.006;4.374;2023-01-16T04:59:02;27.23;;;25.05;;
17177;SDS011;8704;52.006;4.374;2023-01-16T05:01:30;27.95;;;26.05;;
17177;SDS011;8704;52.006;4.374;2023-01-16T05:04:01;23.50;;;21.90;;
17177;SDS011;8704;52.006;4.374;2023-01-16T05:06:30;19.23;;;17.92;;
17177;SDS011;8704;52.006;4.374;2023-01-16T05:08:58;18.23;;;16.63;;
17177;SDS011;8704;52.006;4.374;2023-01-16T05:11:28;20.27;;;18.38;;
17177;SDS011;8704;52.006;4.374;2023-01-16T05:13:56;22.30;;;20.83;;
17177;SDS011;8704;52.006;4.374;2023-01-16T05:16:25;23.48;;;21.83;;
17177;SDS011;8704;52.006;4.374;2023-01-16T05:18:53;22.00;;;20.48;;
17177;SDS011;8704;52.006;4.374;2023-01-16T05:21:21;22.38;;;20.48;;
17177;SDS011;8704;52.006;4.374;2023-01-16T05:23:49;23.23;;;21.60;;
17177;SDS011;8704;52.006;4.374;2023-01-16T05:26:17;21.13;;;19.63;;
17177;SDS011;8704;52.006;4.374;2023-01-16T05:28:47;23.73;;;21.80;;
17177;SDS011;8704;52.006;4.374;2023-01-16T05:31:15;24.52;;;23.00;;
17177;SDS011;8704;52.006;4.374;2023-01-16T05:33:43;22.42;;;20.70;;
17177;SDS011;8704;52.006;4.374;2023-01-16T05:36:11;22.95;;;21.25;;
17177;SDS011;8704;52.006;4.374;2023-01-16T05:38:39;25.00;;;23.10;;
17177;SDS011;8704;52.006;4.374;2023-01-16T05:41:07;25.58;;;23.90;;
17177;SDS011;8704;52.006;4.374;2023-01-16T05:43:35;24.75;;;23.25;;
17177;SDS011;8704;52.006;4.374;2023-01-16T05:46:05;24.70;;;22.73;;
17177;SDS011;8704;52.006;4.374;2023-01-16T05:48:33;27.00;;;25.17;;
17177;SDS011;8704;52.006;4.374;2023-01-16T05:51:03;26.08;;;23.90;;
17177;SDS011;8704;52.006;4.374;2023-01-16T05:53:31;30.23;;;28.40;;
17177;SDS011;8704;52.006;4.374;2023-01-16T05:56:05;25.52;;;23.65;;
17177;SDS011;8704;52.006;4.374;2023-01-16T05:58:34;28.80;;;27.02;;
17177;SDS011;8704;52.006;4.374;2023-01-16T06:01:02;25.52;;;23.85;;
17177;SDS011;8704;52.006;4.374;2023-01-16T06:03:32;25.63;;;23.92;;
17177;SDS011;8704;52.006;4.374;2023-01-16T06:06:00;28.20;;;26.40;;
17177;SDS011;8704;52.006;4.374;2023-01-16T06:08:28;30.13;;;28.10;;
17177;SDS011;8704;52.006;4.374;2023-01-16T06:10:58;30.55;;;28.52;;
17177;SDS011;8704;52.006;4.374;2023-01-16T06:13:26;33.58;;;31.25;;
17177;SDS011;8704;52.006;4.374;2023-01-16T06:15:54;32.30;;;30.02;;
17177;SDS011;8704;52.006;4.374;2023-01-16T06:18:23;31.08;;;29.00;;
17177;SDS011;8704;52.006;4.374;2023-01-16T06:20:51;29.23;;;27.10;;
17177;SDS011;8704;52.006;4.374;2023-01-16T06:23:19;30.15;;;28.00;;
17177;SDS011;8704;52.006;4.374;2023-01-16T06:25:48;33.95;;;31.52;;
17177;SDS011;8704;52.006;4.374;2023-01-16T06:28:16;32.35;;;29.95;;
17177;SDS011;8704;52.006;4.374;2023-01-16T06:30:45;31.85;;;29.63;;
17177;SDS011;8704;52.006;4.374;2023-01-16T06:33:18;32.00;;;29.80;;
17177;SDS011;8704;52.006;4.374;2023-01-16T06:35:47;31.38;;;29.10;;
17177;SDS011;8704;52.006;4.374;2023-01-16T06:38:16;30.10;;;28.10;;
17177;SDS011;8704;52.006;4.374;2023-01-16T06:40:44;34.38;;;32.25;;
17177;SDS011;8704;52.006;4.374;2023-01-16T06:43:12;33.60;;;31.08;;
17177;SDS011;8704;52.006;4.374;2023-01-16T06:45:41;33.05;;;30.58;;
17177;SDS011;8704;52.006;4.374;2023-01-16T06:48:11;31.33;;;29.42;;
17177;SDS011;8704;52.006;4.374;2023-01-16T06:50:39;28.25;;;26.38;;
17177;SDS011;8704;52.006;4.374;2023-01-16T06:53:08;30.30;;;28.38;;
17177;SDS011;8704;52.006;4.374;2023-01-16T06:55:36;31.70;;;29.83;;
17177;SDS011;8704;52.006;4.374;2023-01-16T06:58:05;33.33;;;31.05;;
17177;SDS011;8704;52.006;4.374;2023-01-16T07:00:33;29.77;;;28.05;;
17177;SDS011;8704;52.006;4.374;2023-01-16T07:03:03;24.27;;;22.77;;
17177;SDS011;8704;52.006;4.374;2023-01-16T07:05:31;26.70;;;25.08;;
17177;SDS011;8704;52.006;4.374;2023-01-16T07:07:59;29.48;;;27.63;;
17177;SDS011;8704;52.006;4.374;2023-01-16T07:10:28;27.98;;;26.25;;
17177;SDS011;8704;52.006;4.374;2023-01-16T07:12:56;26.30;;;24.60;;
17177;SDS011;8704;52.006;4.374;2023-01-16T07:15:24;24.95;;;23.50;;
17177;SDS011;8704;52.006;4.374;2023-01-16T07:18:08;26.95;;;25.10;;
17177;SDS011;8704;52.006;4.374;2023-01-16T07:20:57;24.73;;;22.80;;
17177;SDS011;8704;52.006;4.374;2023-01-16T07:23:46;27.75;;;25.58;;
17177;SDS011;8704;52.006;4.374;2023-01-16T07:26:19;25.45;;;23.92;;
17177;SDS011;8704;52.006;4.374;2023-01-16T07:28:48;25.85;;;24.15;;
17177;SDS011;8704;52.006;4.374;2023-01-16T07:31:18;27.13;;;25.40;;
17177;SDS011;8704;52.006;4.374;2023-01-16T07:33:48;30.05;;;28.17;;
17177;SDS011;8704;52.006;4.374;2023-01-16T07:36:15;31.15;;;29.08;;
17177;SDS011;8704;52.006;4.374;2023-01-16T07:38:43;29.52;;;27.63;;
17177;SDS011;8704;52.006;4.374;2023-01-16T07:41:11;33.25;;;31.50;;
17177;SDS011;8704;52.006;4.374;2023-01-16T07:43:42;32.15;;;29.70;;
17177;SDS011;8704;52.006;4.374;2023-01-16T07:46:11;32.67;;;30.35;;
17177;SDS011;8704;52.006;4.374;2023-01-16T07:48:39;33.00;;;30.95;;
17177;SDS011;8704;52.006;4.374;2023-01-16T07:51:07;32.88;;;30.83;;
17177;SDS011;8704;52.006;4.374;2023-01-16T07:53:35;33.65;;;31.58;;
17177;SDS011;8704;52.006;4.374;2023-01-16T07:56:03;34.13;;;31.85;;
17177;SDS011;8704;52.006;4.374;2023-01-16T07:58:31;32.83;;;30.73;;
17177;SDS011;8704;52.006;4.374;2023-01-16T08:01:00;29.27;;;27.25;;
17177;SDS011;8704;52.006;4.374;2023-01-16T08:03:29;30.23;;;27.60;;
17177;SDS011;8704;52.006;4.374;2023-01-16T08:05:57;29.45;;;27.55;;
17177;SDS011;8704;52.006;4.374;2023-01-16T08:08:25;28.95;;;27.35;;
17177;SDS011;8704;52.006;4.374;2023-01-16T08:10:55;27.40;;;25.13;;
17177;SDS011;8704;52.006;4.374;2023-01-16T08:13:23;25.48;;;23.40;;
17177;SDS011;8704;52.006;4.374;2023-01-16T08:15:51;29.05;;;27.35;;
17177;SDS011;8704;52.006;4.374;2023-01-16T08:18:21;27.00;;;25.33;;
17177;SDS011;8704;52.006;4.374;2023-01-16T08:20:49;27.73;;;26.02;;
17177;SDS011;8704;52.006;4.374;2023-01-16T08:23:17;28.65;;;26.77;;
17177;SDS011;8704;52.006;4.374;2023-01-16T08:25:48;27.40;;;25.70;;
17177;SDS011;8704;52.006;4.374;2023-01-16T08:28:18;28.02;;;26.60;;
17177;SDS011;8704;52.006;4.374;2023-01-16T08:30:46;24.20;;;22.55;;
17177;SDS011;8704;52.006;4.374;2023-01-16T08:33:14;25.58;;;23.92;;
17177;SDS011;8704;52.006;4.374;2023-01-16T08:35:43;23.58;;;21.80;;
17177;SDS011;8704;52.006;4.374;2023-01-16T08:38:11;26.55;;;24.63;;
17177;SDS011;8704;52.006;4.374;2023-01-16T08:40:39;28.08;;;26.42;;
17177;SDS011;8704;52.006;4.374;2023-01-16T08:43:08;23.90;;;22.50;;
17177;SDS011;8704;52.006;4.374;2023-01-16T08:45:54;26.63;;;24.92;;
17177;SDS011;8704;52.006;4.374;2023-01-16T08:48:48;25.90;;;24.30;;
17177;SDS011;8704;52.006;4.374;2023-01-16T08:51:35;26.33;;;24.73;;
17177;SDS011;8704;52.006;4.374;2023-01-16T08:54:05;25.77;;;24.08;;
17177;SDS011;8704;52.006;4.374;2023-01-16T08:56:33;24.63;;;23.13;;
17177;SDS011;8704;52.006;4.374;2023-01-16T08:59:01;25.73;;;24.23;;
17177;SDS011;8704;52.006;4.374;2023-01-16T09:01:29;23.80;;;22.20;;
17177;SDS011;8704;52.006;4.374;2023-01-16T09:03:57;23.90;;;22.50;;
17177;SDS011;8704;52.006;4.374;2023-01-16T09:06:25;25.42;;;23.83;;
17177;SDS011;8704;52.006;4.374;2023-01-16T09:08:54;23.83;;;22.42;;
17177;SDS011;8704;52.006;4.374;2023-01-16T09:11:22;24.88;;;23.27;;
17177;SDS011;8704;52.006;4.374;2023-01-16T09:14:07;25.83;;;24.23;;
17177;SDS011;8704;52.006;4.374;2023-01-16T09:16:50;25.40;;;23.77;;
17177;SDS011;8704;52.006;4.374;2023-01-16T09:19:19;26.70;;;25.30;;
17177;SDS011;8704;52.006;4.374;2023-01-16T09:21:47;27.65;;;26.13;;
17177;SDS011;8704;52.006;4.374;2023-01-16T09:24:16;28.40;;;26.90;;
17177;SDS011;8704;52.006;4.374;2023-01-16T09:26:44;31.75;;;30.10;;
17177;SDS011;8704;52.006;4.374;2023-01-16T09:29:12;31.15;;;29.35;;
17177;SDS011;8704;52.006;4.374;2023-01-16T09:31:40;29.60;;;28.00;;
17177;SDS011;8704;52.006;4.374;2023-01-16T09:34:08;29.65;;;28.05;;
17177;SDS011;8704;52.006;4.374;2023-01-16T09:36:36;28.55;;;26.85;;
17177;SDS011;8704;52.006;4.374;2023-01-16T09:39:04;31.17;;;29.58;;
17177;SDS011;8704;52.006;4.374;2023-01-16T09:41:35;28.48;;;26.77;;
17177;SDS011;8704;52.006;4.374;2023-01-16T09:44:30;31.17;;;29.52;;
17177;SDS011;8704;52.006;4.374;2023-01-16T09:46:58;27.27;;;25.67;;
17177;SDS011;8704;52.006;4.374;2023-01-16T09:49:28;31.90;;;30.00;;
17177;SDS011;8704;52.006;4.374;2023-01-16T09:52:02;31.98;;;29.88;;
17177;SDS011;8704;52.006;4.374;2023-01-16T09:55:10;31.92;;;30.23;;
17177;SDS011;8704;52.006;4.374;2023-01-16T09:58:17;32.55;;;30.85;;
17177;SDS011;8704;52.006;4.374;2023-01-16T10:01:04;31.30;;;29.60;;
17177;SDS011;8704;52.006;4.374;2023-01-16T10:03:35;34.42;;;32.72;;
17177;SDS011;8704;52.006;4.374;2023-01-16T10:06:12;34.08;;;32.17;;
17177;SDS011;8704;52.006;4.374;2023-01-16T10:08:51;35.85;;;33.78;;
17177;SDS011;8704;52.006;4.374;2023-01-16T10:11:32;37.50;;;35.40;;
17177;SDS011;8704;52.006;4.374;2023-01-16T10:14:10;33.33;;;31.48;;
17177;SDS011;8704;52.006;4.374;2023-01-16T10:16:54;33.97;;;32.08;;
17177;SDS011;8704;52.006;4.374;2023-01-16T10:19:44;35.33;;;33.63;;
17177;SDS011;8704;52.006;4.374;2023-01-16T10:22:30;35.58;;;33.58;;
17177;SDS011;8704;52.006;4.374;2023-01-16T10:25:06;34.47;;;32.65;;
17177;SDS011;8704;52.006;4.374;2023-01-16T10:27:46;32.70;;;30.80;;
17177;SDS011;8704;52.006;4.374;2023-01-16T10:30:23;34.05;;;32.13;;
17177;SDS011;8704;52.006;4.374;2023-01-16T10:32:57;34.15;;;32.30;;
17177;SDS011;8704;52.006;4.374;2023-01-16T10:35:31;33.75;;;32.03;;
17177;SDS011;8704;52.006;4.374;2023-01-16T10:38:06;32.13;;;30.40;;
17177;SDS011;8704;52.006;4.374;2023-01-16T10:40:44;29.63;;;28.10;;
17177;SDS011;8704;52.006;4.374;2023-01-16T10:43:15;31.20;;;29.50;;
17177;SDS011;8704;52.006;4.374;2023-01-16T10:46:10;31.75;;;29.88;;
17177;SDS011;8704;52.006;4.374;2023-01-16T10:49:16;28.80;;;27.27;;
17177;SDS011;8704;52.006;4.374;2023-01-16T10:51:53;31.27;;;29.77;;
17177;SDS011;8704;52.006;4.374;2023-01-16T10:54:23;31.98;;;30.35;;
17177;SDS011;8704;52.006;4.374;2023-01-16T10:56:51;39.17;;;37.05;;
17177;SDS011;8704;52.006;4.374;2023-01-16T10:59:20;39.72;;;37.63;;
17177;SDS011;8704;52.006;4.374;2023-01-16T11:01:50;34.67;;;32.95;;
17177;SDS011;8704;52.006;4.374;2023-01-16T11:04:20;40.83;;;38.53;;
17177;SDS011;8704;52.006;4.374;2023-01-16T11:07:08;37.78;;;35.88;;
17177;SDS011;8704;52.006;4.374;2023-01-16T11:09:42;37.20;;;35.40;;
17177;SDS011;8704;52.006;4.374;2023-01-16T11:12:11;35.92;;;33.58;;
17177;SDS011;8704;52.006;4.374;2023-01-16T11:15:09;32.08;;;30.52;;
17177;SDS011;8704;52.006;4.374;2023-01-16T11:18:01;34.15;;;32.20;;
17177;SDS011;8704;52.006;4.374;2023-01-16T11:20:46;34.83;;;33.10;;
17177;SDS011;8704;52.006;4.374;2023-01-16T11:23:18;36.50;;;34.45;;
17177;SDS011;8704;52.006;4.374;2023-01-16T11:25:48;29.75;;;28.25;;
17177;SDS011;8704;52.006;4.374;2023-01-16T11:28:18;27.90;;;26.25;;
17177;SDS011;8704;52.006;4.374;2023-01-16T11:30:48;25.23;;;23.92;;
17177;SDS011;8704;52.006;4.374;2023-01-16T11:33:23;25.20;;;23.90;;
17177;SDS011;8704;52.006;4.374;2023-01-16T11:35:55;26.17;;;24.88;;
17177;SDS011;8704;52.006;4.374;2023-01-16T11:38:26;28.15;;;26.33;;
17177;SDS011;8704;52.006;4.374;2023-01-16T11:40:57;29.85;;;28.17;;
17177;SDS011;8704;52.006;4.374;2023-01-16T11:43:28;31.25;;;29.63;;
17177;SDS011;8704;52.006;4.374;2023-01-16T11:46:25;28.05;;;26.65;;
17177;SDS011;8704;52.006;4.374;2023-01-16T11:49:00;26.30;;;25.05;;
17177;SDS011;8704;52.006;4.374;2023-01-16T11:51:30;23.60;;;22.40;;
17177;SDS011;8704;52.006;4.374;2023-01-16T11:54:00;16.42;;;15.57;;
17177;SDS011;8704;52.006;4.374;2023-01-16T11:56:41;18.13;;;17.23;;
17177;SDS011;8704;52.006;4.374;2023-01-16T11:59:25;20.00;;;19.00;;
17177;SDS011;8704;52.006;4.374;2023-01-16T12:02:06;13.90;;;13.10;;
17177;SDS011;8704;52.006;4.374;2023-01-16T12:04:49;15.60;;;14.80;;
17177;SDS011;8704;52.006;4.374;2023-01-16T12:07:45;15.48;;;14.68;;
17177;SDS011;8704;52.006;4.374;2023-01-16T12:10:26;19.38;;;18.30;;
17177;SDS011;8704;52.006;4.374;2023-01-16T12:13:04;19.73;;;18.73;;
17177;SDS011;8704;52.006;4.374;2023-01-16T12:15:56;17.00;;;16.10;;
17177;SDS011;8704;52.006;4.374;2023-01-16T12:18:34;19.20;;;18.30;;
17177;SDS011;8704;52.006;4.374;2023-01-16T12:21:16;21.52;;;20.42;;
17177;SDS011;8704;52.006;4.374;2023-01-16T12:23:56;15.82;;;14.95;;
17177;SDS011;8704;52.006;4.374;2023-01-16T12:26:47;13.55;;;12.85;;
17177;SDS011;8704;52.006;4.374;2023-01-16T12:29:30;14.68;;;13.90;;
17177;SDS011;8704;52.006;4.374;2023-01-16T12:32:12;12.38;;;11.68;;
17177;SDS011;8704;52.006;4.374;2023-01-16T12:34:52;10.93;;;10.32;;
17177;SDS011;8704;52.006;4.374;2023-01-16T12:37:36;10.50;;;9.90;;
17177;SDS011;8704;52.006;4.374;2023-01-16T12:40:20;11.18;;;10.57;;
17177;SDS011;8704;52.006;4.374;2023-01-16T12:42:59;12.50;;;11.90;;
17177;SDS011;8704;52.006;4.374;2023-01-16T12:45:47;10.50;;;9.90;;
17177;SDS011;8704;52.006;4.374;2023-01-16T12:48:35;7.13;;;6.72;;
17177;SDS011;8704;52.006;4.374;2023-01-16T12:51:14;10.00;;;9.50;;
17177;SDS011;8704;52.006;4.374;2023-01-16T12:57:19;8.95;;;8.40;;
17177;SDS011;8704;52.006;4.374;2023-01-16T13:00:02;9.27;;;8.77;;
17177;SDS011;8704;52.006;4.374;2023-01-16T13:02:36;11.68;;;10.77;;
17177;SDS011;8704;52.006;4.374;2023-01-16T13:05:11;9.07;;;8.48;;
17177;SDS011;8704;52.006;4.374;2023-01-16T13:07:46;11.10;;;10.38;;
17177;SDS011;8704;52.006;4.374;2023-01-16T13:10:21;11.75;;;11.05;;
17177;SDS011;8704;52.006;4.374;2023-01-16T13:13:15;10.30;;;9.70;;
17177;SDS011;8704;52.006;4.374;2023-01-16T13:15:54;11.45;;;10.65;;
17177;SDS011;8704;52.006;4.374;2023-01-16T13:18:27;10.38;;;9.70;;
17177;SDS011;8704;52.006;4.374;2023-01-16T13:21:00;8.93;;;8.23;;
17177;SDS011;8704;52.006;4.374;2023-01-16T13:23:31;7.80;;;7.20;;
17177;SDS011;8704;52.006;4.374;2023-01-16T13:26:01;9.88;;;9.27;;
17177;SDS011;8704;52.006;4.374;2023-01-16T13:28:35;10.52;;;9.90;;
17177;SDS011;8704;52.006;4.374;2023-01-16T13:31:12;11.73;;;10.93;;
17177;SDS011;8704;52.006;4.374;2023-01-16T13:33:46;10.38;;;9.70;;
17177;SDS011;8704;52.006;4.374;2023-01-16T13:39:37;11.50;;;10.80;;
17177;SDS011;8704;52.006;4.374;2023-01-16T13:42:24;12.35;;;11.65;;
17177;SDS011;8704;52.006;4.374;2023-01-16T13:44:56;12.48;;;11.77;;
17177;SDS011;8704;52.006;4.374;2023-01-16T13:47:45;14.85;;;13.95;;
17177;SDS011;8704;52.006;4.374;2023-01-16T13:50:17;14.80;;;13.70;;
17177;SDS011;8704;52.006;4.374;2023-01-16T13:52:48;16.77;;;15.80;;
17177;SDS011;8704;52.006;4.374;2023-01-16T13:55:20;19.05;;;17.65;;
17177;SDS011;8704;52.006;4.374;2023-01-16T13:57:55;20.60;;;19.50;;
17177;SDS011;8704;52.006;4.374;2023-01-16T14:00:35;18.88;;;17.67;;
17177;SDS011;8704;52.006;4.374;2023-01-16T14:03:15;17.55;;;16.45;;
17177;SDS011;8704;52.006;4.374;2023-01-16T14:05:47;19.75;;;18.55;;
17177;SDS011;8704;52.006;4.374;2023-01-16T14:08:24;17.33;;;16.33;;
17177;SDS011;8704;52.006;4.374;2023-01-16T14:11:35;18.63;;;17.52;;
17177;SDS011;8704;52.006;4.374;2023-01-16T14:17:15;19.25;;;17.95;;
17177;SDS011;8704;52.006;4.374;2023-01-16T14:19:52;17.88;;;16.85;;
17177;SDS011;8704;52.006;4.374;2023-01-16T14:22:23;17.95;;;16.95;;
17177;SDS011;8704;52.006;4.374;2023-01-16T14:25:17;19.73;;;18.42;;
17177;SDS011;8704;52.006;4.374;2023-01-16T14:27:49;17.65;;;16.55;;
17177;SDS011;8704;52.006;4.374;2023-01-16T14:30:23;18.38;;;17.17;;
17177;SDS011;8704;52.006;4.374;2023-01-16T14:32:54;21.50;;;19.90;;
17177;SDS011;8704;52.006;4.374;2023-01-16T14:35:26;19.65;;;18.38;;
17177;SDS011;8704;52.006;4.374;2023-01-16T14:37:57;18.17;;;17.08;;
17177;SDS011;8704;52.006;4.374;2023-01-16T14:40:28;20.50;;;18.95;;
17177;SDS011;8704;52.006;4.374;2023-01-16T14:43:23;19.77;;;18.52;;
17177;SDS011;8704;52.006;4.374;2023-01-16T14:46:13;21.25;;;19.88;;
17177;SDS011;8704;52.006;4.374;2023-01-16T14:52:45;35.22;;;31.75;;
17177;SDS011;8704;52.006;4.374;2023-01-16T14:55:40;72.15;;;64.63;;
17177;SDS011;8704;52.006;4.374;2023-01-16T14:58:15;14.82;;;13.88;;
17177;SDS011;8704;52.006;4.374;2023-01-16T15:00:50;16.48;;;15.18;;
17177;SDS011;8704;52.006;4.374;2023-01-16T15:03:23;79.68;;;71.80;;
17177;SDS011;8704;52.006;4.374;2023-01-16T15:05:57;12.93;;;11.93;;
17177;SDS011;8704;52.006;4.374;2023-01-16T15:08:33;19.63;;;18.17;;
17177;SDS011;8704;52.006;4.374;2023-01-16T15:11:05;14.32;;;13.52;;
17177;SDS011;8704;52.006;4.374;2023-01-16T15:14:05;33.92;;;31.10;;
17177;SDS011;8704;52.006;4.374;2023-01-16T15:17:03;29.92;;;27.52;;
17177;SDS011;8704;52.006;4.374;2023-01-16T15:20:00;57.28;;;50.78;;
17177;SDS011;8704;52.006;4.374;2023-01-16T15:22:54;141.63;;;102.30;;
17177;SDS011;8704;52.006;4.374;2023-01-16T15:28:16;24.95;;;23.30;;
17177;SDS011;8704;52.006;4.374;2023-01-16T15:30:50;28.75;;;26.88;;
17177;SDS011;8704;52.006;4.374;2023-01-16T15:33:24;31.83;;;29.35;;
17177;SDS011;8704;52.006;4.374;2023-01-16T15:36:15;13.77;;;12.80;;
17177;SDS011;8704;52.006;4.374;2023-01-16T15:38:51;13.68;;;12.48;;
17177;SDS011;8704;52.006;4.374;2023-01-16T15:41:22;7.15;;;6.65;;
17177;SDS011;8704;52.006;4.374;2023-01-16T15:44:14;7.78;;;7.22;;
17177;SDS011;8704;52.006;4.374;2023-01-16T15:47:14;10.60;;;9.90;;